WetterOnline ( https://www.wetteronline.de )

Wetter aktuell Donau-Ries

Aktuelles Wetter: Harburg (503m)

6-stündlich | Neueste Meldungen
Ortszeit Temperatur Wetter
Di, 06.12. 13:00 1.7° C bedeckt
Di, 06.12. 7:00 0.8° C bedeckt
Di, 06.12. 1:00 1.2° C Nebel
Mo, 05.12. 19:00 2.6° C bedeckt
Mo, 05.12. 13:00 2.6° C bedeckt
Mo, 05.12. 7:00 0.6° C bedeckt
Mo, 05.12. 1:00 1.8° C bedeckt
So, 04.12. 19:00 2.4° C Nebel
Ortszeit Temperatur Wetter
Di, 06.12. 15:30 2.4° C leichter Regen
Di, 06.12. 15:20 2.4° C leichter Regen
Di, 06.12. 15:10 2.2° C Sprühregen
Di, 06.12. 15:00 2.2° C Sprühregen
Di, 06.12. 14:50 2.2° C Sprühregen
Di, 06.12. 14:40 2.1° C Sprühregen
Di, 06.12. 14:30 2.1° C Sprühregen
Di, 06.12. 14:00 2.0° C bedeckt
Di, 06.12. 13:30 1.9° C Sprühregen
Di, 06.12. 13:00 1.7° C bedeckt
Di, 06.12. 12:30 1.8° C bedeckt
Ortszeit Relative Feuchte Sichtweite
Di, 06.12. 13:00 96% 7 km
Di, 06.12. 7:00 98% 6 km
Di, 06.12. 1:00 99% 6 km
Mo, 05.12. 19:00 99% 5.0 km
Mo, 05.12. 13:00 96% 9 km
Mo, 05.12. 7:00 98% 7 km
Mo, 05.12. 1:00 100% 4.7 km
So, 04.12. 19:00 100% 100 m
Ortszeit Relative Feuchte Sichtweite
Di, 06.12. 15:30 94% 10 km
Di, 06.12. 15:20 94% -
Di, 06.12. 15:10 95% -
Di, 06.12. 15:00 96% 7 km
Di, 06.12. 14:50 96% -
Di, 06.12. 14:40 95% -
Di, 06.12. 14:30 93% 9 km
Di, 06.12. 14:00 94% 9 km
Di, 06.12. 13:30 93% 8 km
Di, 06.12. 13:00 96% 7 km
Di, 06.12. 12:30 94% 7 km
Ortszeit Niederschlagsmenge Niederschlagsart
Di, 06.12. 13:00 0.1 l/m2 in 6 Std. Schnee, Regen
Di, 06.12. 7:00 0.1 l/m2 in 12 Std. Sprühregen
Di, 06.12. 1:00 0.0 l/m2 in 6 Std. -
Mo, 05.12. 19:00 0.2 l/m2 in 12 Std. Regen
Mo, 05.12. 13:00 0.1 l/m2 in 6 Std. Regen
Mo, 05.12. 7:00 0.0 l/m2 in 12 Std. -
Mo, 05.12. 1:00 0.0 l/m2 in 6 Std. -
So, 04.12. 19:00 0.0 l/m2 in 12 Std. -
Ortszeit Niederschlagsmenge Niederschlagsart
Di, 06.12. 15:30 <0.05 l/m2 in 30 Min -
Di, 06.12. 15:20 keine Meldung -
Di, 06.12. 15:10 keine Meldung -
Di, 06.12. 15:00 <0.05 l/m2 in 1 Std. Regen
Di, 06.12. 14:50 keine Meldung -
Di, 06.12. 14:40 keine Meldung -
Di, 06.12. 14:30 <0.05 l/m2 in 30 Min -
Di, 06.12. 14:00 <0.05 l/m2 in 1 Std. Sprühregen
Di, 06.12. 13:30 <0.05 l/m2 in 30 Min -
Di, 06.12. 13:00 <0.05 l/m2 in 1 Std. Schnee, Regen
Di, 06.12. 12:30 <0.05 l/m2 in 30 Min Schnee
Ortszeit Stärke Spitze Richtung
km/h Bft. km/h Grad Sektor
Di, 06.12. 13:00 7 2 14 170° S
Di, 06.12. 7:00 7 2 11 180° S
Di, 06.12. 1:00 7 2 18 180° S
Mo, 05.12. 19:00 7 2 14 170° S
Mo, 05.12. 13:00 4 1 14 170° S
Mo, 05.12. 7:00 7 2 29 250° W
Mo, 05.12. 1:00 7 2 14 210° SW
So, 04.12. 19:00 7 2 22 310° NW
Ortszeit Stärke Spitze Richtung
km/h Bft. km/h Grad Sektor
Di, 06.12. 15:30 7 2 14 260° W
Di, 06.12. 15:20 7 2 - 260° W
Di, 06.12. 15:10 6 1 - 240° SW
Di, 06.12. 15:00 7 2 11 210° SW
Di, 06.12. 14:50 7 2 - 210° SW
Di, 06.12. 14:40 7 2 - 210° SW
Di, 06.12. 14:30 7 2 11 200° S
Di, 06.12. 14:00 7 2 11 180° S
Di, 06.12. 13:30 7 2 11 190° S
Di, 06.12. 13:00 7 2 11 170° S
Di, 06.12. 12:30 6 1 9 160° S
Ortszeit Untergrenze Bedeckung Gattung
total tief tief mittel hoch
Di, 06.12. 13:00 90 m 8/8 8/8 - - -
Di, 06.12. 7:00 150 m 8/8 8/8 - - -
Di, 06.12. 1:00 <30 m 8/8 0/8 - - -
Mo, 05.12. 19:00 750 m 8/8 8/8 - - -
Mo, 05.12. 13:00 150 m 8/8 8/8 - - -
Mo, 05.12. 7:00 90 m 8/8 8/8 - - -
Mo, 05.12. 1:00 60 m 8/8 8/8 - - -
So, 04.12. 19:00 <30 m 8/8 0/8 - - -
Ortszeit Bedeckungsgrad in Achtel und Wolkenuntergrenze
Di, 06.12. 15:30 8(270m)
Di, 06.12. 15:20 8(270m)
Di, 06.12. 15:10 8
Di, 06.12. 15:00 7(270m) 8(390m)
Di, 06.12. 14:50 7(270m) 8(390m)
Di, 06.12. 14:40 8
Di, 06.12. 14:30 4(390m) 7(510m) 7(780m)
Di, 06.12. 14:00 2(360m) 7(1350m) 8(1500m)
Di, 06.12. 13:30 8(660m)
Di, 06.12. 13:00 3(90m) 7(630m) 8(1470m)
Di, 06.12. 12:30 2(90m) 7(1140m) 8(1500m)
Ortszeit Luftdruck NN (hPa) Tendenz (hPa in 3 Std.)
Di, 06.12. 13:00 1019 - 0,7
Di, 06.12. 7:00 1020 - 0,8
Di, 06.12. 1:00 1021 0,0
Mo, 05.12. 19:00 1021 + 0,4
Mo, 05.12. 13:00 1020 + 0,2
Mo, 05.12. 7:00 1019 + 1,0
Mo, 05.12. 1:00 1015 + 1,1
So, 04.12. 19:00 1013 + 0,1
Ortszeit Luftdruck NN (hPa) Tendenz (hPa in 3 Std.)
Di, 06.12. 15:30 1018 - 0,7
Di, 06.12. 15:20 1018 keine Meldung
Di, 06.12. 15:10 1018 keine Meldung
Di, 06.12. 15:00 1018 - 0,7
Di, 06.12. 14:50 1018 keine Meldung
Di, 06.12. 14:40 1018 keine Meldung
Di, 06.12. 14:30 1018 - 0,9
Di, 06.12. 14:00 1018 - 1,0
Di, 06.12. 13:30 1019 - 1,0
Di, 06.12. 13:00 1019 - 0,7
Di, 06.12. 12:30 1019 - 0,3
Ortszeit Schneehöhe (cm)
Di, 06.12. 13:00 0
Di, 06.12. 7:00 0
Di, 06.12. 1:00 0
Mo, 05.12. 19:00 0
Mo, 05.12. 13:00 0
Mo, 05.12. 7:00 0
Mo, 05.12. 1:00 0
So, 04.12. 19:00 0
Ortszeit Schneehöhe (cm)
Di, 06.12. 15:30 0
Di, 06.12. 15:20 0
Di, 06.12. 15:10 0
Di, 06.12. 15:00 0
Di, 06.12. 14:50 0
Di, 06.12. 14:40 0
Di, 06.12. 14:30 0
Di, 06.12. 14:00 0
Di, 06.12. 13:30 0
Di, 06.12. 13:00 0
Di, 06.12. 12:30 0
Link zu dieser Seite / Seite empfehlen

Das Wetter in ...